sensor_id;sensor_type;location;lat;lon;timestamp;temperature;humidity
43679;DHT22;29279;50.858;4.392;2023-07-29T00:01:00;20.70;99.90
43679;DHT22;29279;50.858;4.392;2023-07-29T00:03:26;20.60;99.90
43679;DHT22;29279;50.858;4.392;2023-07-29T00:05:52;20.60;99.90
43679;DHT22;29279;50.858;4.392;2023-07-29T00:08:18;20.40;99.90
43679;DHT22;29279;50.858;4.392;2023-07-29T00:10:43;20.30;99.90
43679;DHT22;29279;50.858;4.392;2023-07-29T00:13:09;20.30;99.90
43679;DHT22;29279;50.858;4.392;2023-07-29T00:15:35;20.20;99.90
43679;DHT22;29279;50.858;4.392;2023-07-29T00:18:00;20.20;99.90
43679;DHT22;29279;50.858;4.392;2023-07-29T00:20:26;20.00;99.90
43679;DHT22;29279;50.858;4.392;2023-07-29T00:22:52;19.80;99.90
43679;DHT22;29279;50.858;4.392;2023-07-29T00:25:21;19.70;99.90
43679;DHT22;29279;50.858;4.392;2023-07-29T00:27:47;19.70;99.90
43679;DHT22;29279;50.858;4.392;2023-07-29T00:30:13;19.70;99.90
43679;DHT22;29279;50.858;4.392;2023-07-29T00:32:38;19.70;99.90
43679;DHT22;29279;50.858;4.392;2023-07-29T00:35:04;19.60;99.90
43679;DHT22;29279;50.858;4.392;2023-07-29T00:37:30;19.60;99.90
43679;DHT22;29279;50.858;4.392;2023-07-29T00:39:56;19.60;99.90
43679;DHT22;29279;50.858;4.392;2023-07-29T00:42:23;19.70;99.90
43679;DHT22;29279;50.858;4.392;2023-07-29T00:44:49;19.60;99.90
43679;DHT22;29279;50.858;4.392;2023-07-29T00:47:15;19.60;99.90
43679;DHT22;29279;50.858;4.392;2023-07-29T00:49:44;19.60;99.90
43679;DHT22;29279;50.858;4.392;2023-07-29T00:52:11;19.40;99.90
43679;DHT22;29279;50.858;4.392;2023-07-29T00:54:39;19.40;99.90
43679;DHT22;29279;50.858;4.392;2023-07-29T00:57:05;19.40;99.90
43679;DHT22;29279;50.858;4.392;2023-07-29T00:59:32;19.40;99.90
43679;DHT22;29279;50.858;4.392;2023-07-29T01:01:59;19.30;99.90
43679;DHT22;29279;50.858;4.392;2023-07-29T01:04:25;19.30;99.90
43679;DHT22;29279;50.858;4.392;2023-07-29T01:06:53;19.20;99.90
43679;DHT22;29279;50.858;4.392;2023-07-29T01:12:35;19.20;99.90
43679;DHT22;29279;50.858;4.392;2023-07-29T01:17:43;19.30;99.90
43679;DHT22;29279;50.858;4.392;2023-07-29T01:20:17;19.40;99.90
43679;DHT22;29279;50.858;4.392;2023-07-29T01:22:46;19.60;99.90
43679;DHT22;29279;50.858;4.392;2023-07-29T01:25:13;19.60;99.90
43679;DHT22;29279;50.858;4.392;2023-07-29T01:27:40;19.60;99.90
43679;DHT22;29279;50.858;4.392;2023-07-29T01:30:06;19.70;99.90
43679;DHT22;29279;50.858;4.392;2023-07-29T01:32:48;19.70;99.90
43679;DHT22;29279;50.858;4.392;2023-07-29T01:35:22;19.60;99.90
43679;DHT22;29279;50.858;4.392;2023-07-29T01:37:52;19.40;99.90
43679;DHT22;29279;50.858;4.392;2023-07-29T01:40:25;19.40;99.90
43679;DHT22;29279;50.858;4.392;2023-07-29T01:42:52;19.40;99.90
43679;DHT22;29279;50.858;4.392;2023-07-29T01:45:17;19.40;99.90
43679;DHT22;29279;50.858;4.392;2023-07-29T01:47:43;19.40;99.90
43679;DHT22;29279;50.858;4.392;2023-07-29T01:50:09;19.30;99.90
43679;DHT22;29279;50.858;4.392;2023-07-29T01:52:35;19.20;99.90
43679;DHT22;29279;50.858;4.392;2023-07-29T01:55:01;19.00;99.90
43679;DHT22;29279;50.858;4.392;2023-07-29T01:57:27;19.10;99.90
43679;DHT22;29279;50.858;4.392;2023-07-29T01:59:53;19.00;99.90
43679;DHT22;29279;50.858;4.392;2023-07-29T02:02:18;19.00;99.90
43679;DHT22;29279;50.858;4.392;2023-07-29T02:04:44;19.00;99.90
43679;DHT22;29279;50.858;4.392;2023-07-29T02:07:10;19.00;99.90
43679;DHT22;29279;50.858;4.392;2023-07-29T02:09:36;19.20;99.90
43679;DHT22;29279;50.858;4.392;2023-07-29T02:12:02;19.20;99.90
43679;DHT22;29279;50.858;4.392;2023-07-29T02:14:28;19.20;99.90
43679;DHT22;29279;50.858;4.392;2023-07-29T02:16:53;19.30;99.90
43679;DHT22;29279;50.858;4.392;2023-07-29T02:19:19;19.30;99.90
43679;DHT22;29279;50.858;4.392;2023-07-29T02:21:45;19.30;99.90
43679;DHT22;29279;50.858;4.392;2023-07-29T02:24:10;19.20;99.90
43679;DHT22;29279;50.858;4.392;2023-07-29T02:26:36;19.10;99.90
43679;DHT22;29279;50.858;4.392;2023-07-29T02:29:01;19.10;99.90
43679;DHT22;29279;50.858;4.392;2023-07-29T02:31:27;18.90;99.90
43679;DHT22;29279;50.858;4.392;2023-07-29T02:33:53;18.80;99.90
43679;DHT22;29279;50.858;4.392;2023-07-29T02:36:19;18.90;99.90
43679;DHT22;29279;50.858;4.392;2023-07-29T02:38:45;19.00;99.90
43679;DHT22;29279;50.858;4.392;2023-07-29T02:41:11;19.00;99.90
43679;DHT22;29279;50.858;4.392;2023-07-29T02:43:42;19.00;99.90
43679;DHT22;29279;50.858;4.392;2023-07-29T02:46:09;18.90;99.90
43679;DHT22;29279;50.858;4.392;2023-07-29T02:48:34;19.00;99.90
43679;DHT22;29279;50.858;4.392;2023-07-29T02:51:00;18.90;99.90
43679;DHT22;29279;50.858;4.392;2023-07-29T02:53:26;19.00;99.90
43679;DHT22;29279;50.858;4.392;2023-07-29T02:55:51;19.00;99.90
43679;DHT22;29279;50.858;4.392;2023-07-29T02:58:17;18.90;99.90
43679;DHT22;29279;50.858;4.392;2023-07-29T03:00:43;18.90;99.90
43679;DHT22;29279;50.858;4.392;2023-07-29T03:03:09;18.90;99.90
43679;DHT22;29279;50.858;4.392;2023-07-29T03:05:35;19.00;99.90
43679;DHT22;29279;50.858;4.392;2023-07-29T03:08:01;19.00;99.90
43679;DHT22;29279;50.858;4.392;2023-07-29T03:10:26;19.00;99.90
43679;DHT22;29279;50.858;4.392;2023-07-29T03:12:55;18.90;99.90
43679;DHT22;29279;50.858;4.392;2023-07-29T03:15:25;18.90;99.90
43679;DHT22;29279;50.858;4.392;2023-07-29T03:17:51;18.90;99.90
43679;DHT22;29279;50.858;4.392;2023-07-29T03:20:17;18.90;99.90
43679;DHT22;29279;50.858;4.392;2023-07-29T03:22:46;19.00;99.90
43679;DHT22;29279;50.858;4.392;2023-07-29T03:25:12;19.00;99.90
43679;DHT22;29279;50.858;4.392;2023-07-29T03:27:37;18.90;99.90
43679;DHT22;29279;50.858;4.392;2023-07-29T03:30:04;18.80;99.90
43679;DHT22;29279;50.858;4.392;2023-07-29T03:32:29;18.80;99.90
43679;DHT22;29279;50.858;4.392;2023-07-29T03:34:55;18.90;99.90
43679;DHT22;29279;50.858;4.392;2023-07-29T03:37:21;18.90;99.90
43679;DHT22;29279;50.858;4.392;2023-07-29T03:39:47;18.90;99.90
43679;DHT22;29279;50.858;4.392;2023-07-29T03:42:12;18.90;99.90
43679;DHT22;29279;50.858;4.392;2023-07-29T03:44:38;18.90;99.90
43679;DHT22;29279;50.858;4.392;2023-07-29T03:47:05;18.80;99.90
43679;DHT22;29279;50.858;4.392;2023-07-29T03:49:32;18.70;99.90
43679;DHT22;29279;50.858;4.392;2023-07-29T03:51:57;18.60;99.90
43679;DHT22;29279;50.858;4.392;2023-07-29T03:54:23;18.60;99.90
43679;DHT22;29279;50.858;4.392;2023-07-29T03:56:49;18.70;99.90
43679;DHT22;29279;50.858;4.392;2023-07-29T03:59:14;18.70;99.90
43679;DHT22;29279;50.858;4.392;2023-07-29T04:01:40;18.50;99.90
43679;DHT22;29279;50.858;4.392;2023-07-29T04:04:05;18.50;99.90
43679;DHT22;29279;50.858;4.392;2023-07-29T04:06:31;18.60;99.90
43679;DHT22;29279;50.858;4.392;2023-07-29T04:08:57;18.60;99.90
43679;DHT22;29279;50.858;4.392;2023-07-29T04:11:23;18.50;99.90
43679;DHT22;29279;50.858;4.392;2023-07-29T04:13:49;18.50;99.90
43679;DHT22;29279;50.858;4.392;2023-07-29T04:16:15;18.60;99.90
43679;DHT22;29279;50.858;4.392;2023-07-29T04:18:42;18.60;99.90
43679;DHT22;29279;50.858;4.392;2023-07-29T04:21:08;18.60;99.90
43679;DHT22;29279;50.858;4.392;2023-07-29T04:23:34;18.70;99.90
43679;DHT22;29279;50.858;4.392;2023-07-29T04:26:00;18.60;99.90
43679;DHT22;29279;50.858;4.392;2023-07-29T04:28:26;18.50;99.90
43679;DHT22;29279;50.858;4.392;2023-07-29T04:30:52;18.50;99.90
43679;DHT22;29279;50.858;4.392;2023-07-29T04:33:17;18.50;99.90
43679;DHT22;29279;50.858;4.392;2023-07-29T04:35:43;18.60;99.90
43679;DHT22;29279;50.858;4.392;2023-07-29T04:38:08;18.60;99.90
43679;DHT22;29279;50.858;4.392;2023-07-29T04:40:34;18.60;99.90
43679;DHT22;29279;50.858;4.392;2023-07-29T04:43:01;18.50;99.90
43679;DHT22;29279;50.858;4.392;2023-07-29T04:45:30;18.40;99.90
43679;DHT22;29279;50.858;4.392;2023-07-29T04:47:56;18.50;99.90
43679;DHT22;29279;50.858;4.392;2023-07-29T04:50:22;18.50;99.90
43679;DHT22;29279;50.858;4.392;2023-07-29T04:52:48;18.40;99.90
43679;DHT22;29279;50.858;4.392;2023-07-29T04:55:13;18.50;99.90
43679;DHT22;29279;50.858;4.392;2023-07-29T04:57:39;18.40;99.90
43679;DHT22;29279;50.858;4.392;2023-07-29T05:00:05;18.30;99.90
43679;DHT22;29279;50.858;4.392;2023-07-29T05:02:31;18.40;99.90
43679;DHT22;29279;50.858;4.392;2023-07-29T05:04:56;18.50;99.90
43679;DHT22;29279;50.858;4.392;2023-07-29T05:07:22;18.40;99.90
43679;DHT22;29279;50.858;4.392;2023-07-29T05:09:48;18.30;99.90
43679;DHT22;29279;50.858;4.392;2023-07-29T05:12:14;18.30;99.90
43679;DHT22;29279;50.858;4.392;2023-07-29T05:14:39;18.30;99.90
43679;DHT22;29279;50.858;4.392;2023-07-29T05:17:05;18.30;99.90
43679;DHT22;29279;50.858;4.392;2023-07-29T05:19:31;18.40;99.90
43679;DHT22;29279;50.858;4.392;2023-07-29T05:21:57;18.50;99.90
43679;DHT22;29279;50.858;4.392;2023-07-29T05:24:23;18.60;99.90
43679;DHT22;29279;50.858;4.392;2023-07-29T05:26:49;18.70;99.90
43679;DHT22;29279;50.858;4.392;2023-07-29T05:29:15;18.70;99.90
43679;DHT22;29279;50.858;4.392;2023-07-29T05:31:41;18.80;99.90
43679;DHT22;29279;50.858;4.392;2023-07-29T05:34:06;18.80;99.90
43679;DHT22;29279;50.858;4.392;2023-07-29T05:36:32;18.80;99.90
43679;DHT22;29279;50.858;4.392;2023-07-29T05:38:58;18.80;99.90
43679;DHT22;29279;50.858;4.392;2023-07-29T05:41:24;18.80;99.90
43679;DHT22;29279;50.858;4.392;2023-07-29T05:43:51;18.90;99.90
43679;DHT22;29279;50.858;4.392;2023-07-29T05:46:17;18.90;99.90
43679;DHT22;29279;50.858;4.392;2023-07-29T05:48:42;18.80;99.90
43679;DHT22;29279;50.858;4.392;2023-07-29T05:51:08;18.90;99.90
43679;DHT22;29279;50.858;4.392;2023-07-29T05:53:34;19.00;99.90
43679;DHT22;29279;50.858;4.392;2023-07-29T05:55:59;19.00;99.90
43679;DHT22;29279;50.858;4.392;2023-07-29T05:58:25;19.10;99.90
43679;DHT22;29279;50.858;4.392;2023-07-29T06:00:51;19.20;99.90
43679;DHT22;29279;50.858;4.392;2023-07-29T06:03:17;19.30;99.90
43679;DHT22;29279;50.858;4.392;2023-07-29T06:05:42;19.30;99.90
43679;DHT22;29279;50.858;4.392;2023-07-29T06:08:08;19.30;99.90
43679;DHT22;29279;50.858;4.392;2023-07-29T06:10:34;19.30;99.90
43679;DHT22;29279;50.858;4.392;2023-07-29T06:13:00;19.40;99.90
43679;DHT22;29279;50.858;4.392;2023-07-29T06:15:25;19.60;99.90
43679;DHT22;29279;50.858;4.392;2023-07-29T06:17:51;19.70;99.90
43679;DHT22;29279;50.858;4.392;2023-07-29T06:20:17;19.90;99.90
43679;DHT22;29279;50.858;4.392;2023-07-29T06:22:42;20.10;99.90
43679;DHT22;29279;50.858;4.392;2023-07-29T06:25:08;20.10;99.90
43679;DHT22;29279;50.858;4.392;2023-07-29T06:27:34;20.00;99.90
43679;DHT22;29279;50.858;4.392;2023-07-29T06:30:00;20.00;99.90
43679;DHT22;29279;50.858;4.392;2023-07-29T06:32:26;20.20;99.90
43679;DHT22;29279;50.858;4.392;2023-07-29T06:34:52;20.30;99.90
43679;DHT22;29279;50.858;4.392;2023-07-29T06:37:22;20.20;99.90
43679;DHT22;29279;50.858;4.392;2023-07-29T06:39:48;20.30;99.90
43679;DHT22;29279;50.858;4.392;2023-07-29T06:42:14;20.40;99.90
43679;DHT22;29279;50.858;4.392;2023-07-29T06:44:40;20.40;99.90
43679;DHT22;29279;50.858;4.392;2023-07-29T06:47:06;20.40;99.90
43679;DHT22;29279;50.858;4.392;2023-07-29T06:49:31;20.40;99.90
43679;DHT22;29279;50.858;4.392;2023-07-29T06:51:57;20.60;99.90
43679;DHT22;29279;50.858;4.392;2023-07-29T06:54:26;20.60;99.90
43679;DHT22;29279;50.858;4.392;2023-07-29T06:56:52;20.40;99.90
43679;DHT22;29279;50.858;4.392;2023-07-29T06:59:18;20.30;99.90
43679;DHT22;29279;50.858;4.392;2023-07-29T07:01:43;20.20;99.90
43679;DHT22;29279;50.858;4.392;2023-07-29T07:04:09;20.20;99.90
43679;DHT22;29279;50.858;4.392;2023-07-29T07:06:35;20.10;99.90
43679;DHT22;29279;50.858;4.392;2023-07-29T07:09:00;20.10;99.90
43679;DHT22;29279;50.858;4.392;2023-07-29T07:11:26;20.20;99.90
43679;DHT22;29279;50.858;4.392;2023-07-29T07:13:52;20.30;99.90
43679;DHT22;29279;50.858;4.392;2023-07-29T07:16:17;20.40;99.90
43679;DHT22;29279;50.858;4.392;2023-07-29T07:18:43;20.50;99.90
43679;DHT22;29279;50.858;4.392;2023-07-29T07:21:09;20.50;99.90
43679;DHT22;29279;50.858;4.392;2023-07-29T07:23:34;20.40;99.90
43679;DHT22;29279;50.858;4.392;2023-07-29T07:26:00;20.20;99.90
43679;DHT22;29279;50.858;4.392;2023-07-29T07:28:26;20.20;99.90
43679;DHT22;29279;50.858;4.392;2023-07-29T07:30:51;20.10;99.90
43679;DHT22;29279;50.858;4.392;2023-07-29T07:33:17;20.20;99.90
43679;DHT22;29279;50.858;4.392;2023-07-29T07:35:43;20.20;99.90
43679;DHT22;29279;50.858;4.392;2023-07-29T07:38:09;20.10;99.90
43679;DHT22;29279;50.858;4.392;2023-07-29T07:40:35;20.10;99.90
43679;DHT22;29279;50.858;4.392;2023-07-29T07:43:01;20.10;99.90
43679;DHT22;29279;50.858;4.392;2023-07-29T07:45:27;20.30;99.90
43679;DHT22;29279;50.858;4.392;2023-07-29T07:47:53;20.40;99.90
43679;DHT22;29279;50.858;4.392;2023-07-29T07:50:20;20.60;99.90
43679;DHT22;29279;50.858;4.392;2023-07-29T07:52:46;20.80;99.90
43679;DHT22;29279;50.858;4.392;2023-07-29T07:55:11;20.90;99.90
43679;DHT22;29279;50.858;4.392;2023-07-29T07:57:37;21.00;99.90
43679;DHT22;29279;50.858;4.392;2023-07-29T08:00:03;21.10;99.90
43679;DHT22;29279;50.858;4.392;2023-07-29T08:02:30;21.30;99.90
43679;DHT22;29279;50.858;4.392;2023-07-29T08:04:55;21.30;99.90
43679;DHT22;29279;50.858;4.392;2023-07-29T08:07:21;21.40;99.90
43679;DHT22;29279;50.858;4.392;2023-07-29T08:09:47;21.50;99.90
43679;DHT22;29279;50.858;4.392;2023-07-29T08:12:16;21.80;99.90
43679;DHT22;29279;50.858;4.392;2023-07-29T08:14:42;21.90;99.90
43679;DHT22;29279;50.858;4.392;2023-07-29T08:17:07;22.00;99.90
43679;DHT22;29279;50.858;4.392;2023-07-29T08:19:33;22.10;99.90
43679;DHT22;29279;50.858;4.392;2023-07-29T08:22:02;22.30;99.90
43679;DHT22;29279;50.858;4.392;2023-07-29T08:24:28;22.40;99.90
43679;DHT22;29279;50.858;4.392;2023-07-29T08:26:54;22.70;99.90
43679;DHT22;29279;50.858;4.392;2023-07-29T08:29:19;22.70;99.90
43679;DHT22;29279;50.858;4.392;2023-07-29T08:31:45;22.90;99.90
43679;DHT22;29279;50.858;4.392;2023-07-29T08:34:10;22.90;99.90
43679;DHT22;29279;50.858;4.392;2023-07-29T08:36:36;22.90;99.90
43679;DHT22;29279;50.858;4.392;2023-07-29T08:39:02;22.90;99.90
43679;DHT22;29279;50.858;4.392;2023-07-29T08:41:32;22.80;99.90
43679;DHT22;29279;50.858;4.392;2023-07-29T08:44:11;22.90;99.90
43679;DHT22;29279;50.858;4.392;2023-07-29T08:46:38;23.00;99.90
43679;DHT22;29279;50.858;4.392;2023-07-29T08:49:05;22.90;99.90
43679;DHT22;29279;50.858;4.392;2023-07-29T08:51:31;22.90;99.90
43679;DHT22;29279;50.858;4.392;2023-07-29T08:53:59;22.90;99.90
43679;DHT22;29279;50.858;4.392;2023-07-29T08:56:25;23.20;99.90
43679;DHT22;29279;50.858;4.392;2023-07-29T08:58:51;23.30;99.90
43679;DHT22;29279;50.858;4.392;2023-07-29T09:01:17;23.30;99.90
43679;DHT22;29279;50.858;4.392;2023-07-29T09:03:43;23.20;99.90
43679;DHT22;29279;50.858;4.392;2023-07-29T09:06:09;23.30;99.90
43679;DHT22;29279;50.858;4.392;2023-07-29T09:08:36;23.20;99.90
43679;DHT22;29279;50.858;4.392;2023-07-29T09:11:02;23.30;99.90
43679;DHT22;29279;50.858;4.392;2023-07-29T09:13:28;23.50;99.90
43679;DHT22;29279;50.858;4.392;2023-07-29T09:15:55;23.80;99.90
43679;DHT22;29279;50.858;4.392;2023-07-29T09:18:21;23.80;99.90
43679;DHT22;29279;50.858;4.392;2023-07-29T09:20:48;23.90;99.90
43679;DHT22;29279;50.858;4.392;2023-07-29T09:23:15;23.90;99.90
43679;DHT22;29279;50.858;4.392;2023-07-29T09:25:40;23.90;99.90
43679;DHT22;29279;50.858;4.392;2023-07-29T09:28:11;23.70;99.90
43679;DHT22;29279;50.858;4.392;2023-07-29T09:30:41;23.50;99.90
43679;DHT22;29279;50.858;4.392;2023-07-29T09:33:08;23.40;99.90
43679;DHT22;29279;50.858;4.392;2023-07-29T09:35:36;23.60;99.90
43679;DHT22;29279;50.858;4.392;2023-07-29T09:38:03;23.60;99.90
43679;DHT22;29279;50.858;4.392;2023-07-29T09:40:39;23.60;99.90
43679;DHT22;29279;50.858;4.392;2023-07-29T09:43:06;23.40;99.90
43679;DHT22;29279;50.858;4.392;2023-07-29T09:45:34;23.30;99.90
43679;DHT22;29279;50.858;4.392;2023-07-29T09:48:00;23.30;99.90
43679;DHT22;29279;50.858;4.392;2023-07-29T09:50:27;23.30;99.90
43679;DHT22;29279;50.858;4.392;2023-07-29T09:52:54;23.20;99.90
43679;DHT22;29279;50.858;4.392;2023-07-29T09:55:22;23.30;99.90
43679;DHT22;29279;50.858;4.392;2023-07-29T09:57:56;23.40;99.90
43679;DHT22;29279;50.858;4.392;2023-07-29T10:00:23;23.40;99.90
43679;DHT22;29279;50.858;4.392;2023-07-29T10:02:49;23.70;99.90
43679;DHT22;29279;50.858;4.392;2023-07-29T10:05:15;24.00;99.90
43679;DHT22;29279;50.858;4.392;2023-07-29T10:07:41;24.40;99.90
43679;DHT22;29279;50.858;4.392;2023-07-29T10:10:07;24.70;99.90
43679;DHT22;29279;50.858;4.392;2023-07-29T10:12:34;25.10;99.90
43679;DHT22;29279;50.858;4.392;2023-07-29T10:15:03;25.10;99.90
43679;DHT22;29279;50.858;4.392;2023-07-29T10:17:30;25.30;99.90
43679;DHT22;29279;50.858;4.392;2023-07-29T10:19:59;25.50;99.90
43679;DHT22;29279;50.858;4.392;2023-07-29T10:22:28;25.70;99.90
43679;DHT22;29279;50.858;4.392;2023-07-29T10:24:59;25.90;99.90
43679;DHT22;29279;50.858;4.392;2023-07-29T10:27:28;25.70;99.90
43679;DHT22;29279;50.858;4.392;2023-07-29T10:29:55;25.40;99.90
43679;DHT22;29279;50.858;4.392;2023-07-29T10:32:25;25.10;99.90
43679;DHT22;29279;50.858;4.392;2023-07-29T10:34:52;24.80;99.90
43679;DHT22;29279;50.858;4.392;2023-07-29T10:37:18;24.40;99.90
43679;DHT22;29279;50.858;4.392;2023-07-29T10:39:55;23.80;99.90
43679;DHT22;29279;50.858;4.392;2023-07-29T10:42:21;22.40;99.90
43679;DHT22;29279;50.858;4.392;2023-07-29T10:44:51;21.40;99.90
43679;DHT22;29279;50.858;4.392;2023-07-29T10:47:25;21.00;99.90
43679;DHT22;29279;50.858;4.392;2023-07-29T10:49:54;20.90;99.90
43679;DHT22;29279;50.858;4.392;2023-07-29T10:52:30;20.80;99.90
43679;DHT22;29279;50.858;4.392;2023-07-29T10:54:56;20.70;99.90
43679;DHT22;29279;50.858;4.392;2023-07-29T10:57:37;20.90;99.90
43679;DHT22;29279;50.858;4.392;2023-07-29T11:00:04;21.00;99.90
43679;DHT22;29279;50.858;4.392;2023-07-29T11:02:35;20.80;99.90
43679;DHT22;29279;50.858;4.392;2023-07-29T11:05:16;21.00;99.90
43679;DHT22;29279;50.858;4.392;2023-07-29T11:07:47;21.00;99.90
43679;DHT22;29279;50.858;4.392;2023-07-29T11:10:14;20.80;99.90
43679;DHT22;29279;50.858;4.392;2023-07-29T11:20:10;20.30;99.90
43679;DHT22;29279;50.858;4.392;2023-07-29T11:22:37;20.20;99.90
43679;DHT22;29279;50.858;4.392;2023-07-29T11:25:03;20.00;99.90
43679;DHT22;29279;50.858;4.392;2023-07-29T11:27:29;20.10;99.90
43679;DHT22;29279;50.858;4.392;2023-07-29T11:30:02;20.00;99.90
43679;DHT22;29279;50.858;4.392;2023-07-29T11:32:31;20.10;99.90
43679;DHT22;29279;50.858;4.392;2023-07-29T11:35:00;20.30;99.90
43679;DHT22;29279;50.858;4.392;2023-07-29T11:37:30;20.80;99.90
43679;DHT22;29279;50.858;4.392;2023-07-29T11:39:55;21.30;99.90
43679;DHT22;29279;50.858;4.392;2023-07-29T11:42:21;21.80;99.90
43679;DHT22;29279;50.858;4.392;2023-07-29T11:44:47;22.70;99.90
43679;DHT22;29279;50.858;4.392;2023-07-29T11:47:13;23.30;99.90
43679;DHT22;29279;50.858;4.392;2023-07-29T11:49:40;24.70;99.90
43679;DHT22;29279;50.858;4.392;2023-07-29T11:52:10;24.70;99.90
43679;DHT22;29279;50.858;4.392;2023-07-29T11:54:40;24.50;99.90
43679;DHT22;29279;50.858;4.392;2023-07-29T11:57:09;25.40;99.90
43679;DHT22;29279;50.858;4.392;2023-07-29T11:59:36;26.10;99.90
43679;DHT22;29279;50.858;4.392;2023-07-29T12:02:05;26.50;99.90
43679;DHT22;29279;50.858;4.392;2023-07-29T12:04:32;26.70;99.90
43679;DHT22;29279;50.858;4.392;2023-07-29T12:06:58;26.10;99.90
43679;DHT22;29279;50.858;4.392;2023-07-29T12:09:25;24.80;99.90
43679;DHT22;29279;50.858;4.392;2023-07-29T12:11:52;24.00;99.90
43679;DHT22;29279;50.858;4.392;2023-07-29T12:14:18;22.90;99.90
43679;DHT22;29279;50.858;4.392;2023-07-29T12:16:44;22.00;99.90
43679;DHT22;29279;50.858;4.392;2023-07-29T12:19:14;21.30;99.90
43679;DHT22;29279;50.858;4.392;2023-07-29T12:21:42;21.10;99.90
43679;DHT22;29279;50.858;4.392;2023-07-29T12:24:08;21.70;99.90
43679;DHT22;29279;50.858;4.392;2023-07-29T12:26:35;22.40;99.90
43679;DHT22;29279;50.858;4.392;2023-07-29T12:29:12;22.50;99.90
43679;DHT22;29279;50.858;4.392;2023-07-29T12:31:38;21.90;99.90
43679;DHT22;29279;50.858;4.392;2023-07-29T12:34:03;21.60;99.90
43679;DHT22;29279;50.858;4.392;2023-07-29T12:36:43;21.70;99.90
43679;DHT22;29279;50.858;4.392;2023-07-29T12:39:19;22.50;99.90
43679;DHT22;29279;50.858;4.392;2023-07-29T12:41:45;23.10;99.90
43679;DHT22;29279;50.858;4.392;2023-07-29T12:44:11;23.20;99.90
43679;DHT22;29279;50.858;4.392;2023-07-29T12:46:36;24.50;99.90
43679;DHT22;29279;50.858;4.392;2023-07-29T12:49:02;25.70;99.90
43679;DHT22;29279;50.858;4.392;2023-07-29T12:51:28;25.40;99.90
43679;DHT22;29279;50.858;4.392;2023-07-29T12:53:54;26.00;99.90
43679;DHT22;29279;50.858;4.392;2023-07-29T12:56:20;26.00;99.90
43679;DHT22;29279;50.858;4.392;2023-07-29T12:58:46;26.50;99.90
43679;DHT22;29279;50.858;4.392;2023-07-29T13:01:12;26.50;99.90
43679;DHT22;29279;50.858;4.392;2023-07-29T13:03:42;26.30;99.90
43679;DHT22;29279;50.858;4.392;2023-07-29T13:06:08;25.90;99.90
43679;DHT22;29279;50.858;4.392;2023-07-29T13:08:33;26.80;99.90
43679;DHT22;29279;50.858;4.392;2023-07-29T13:10:59;28.40;99.90
43679;DHT22;29279;50.858;4.392;2023-07-29T13:13:25;28.70;99.90
43679;DHT22;29279;50.858;4.392;2023-07-29T13:15:50;27.40;99.90
43679;DHT22;29279;50.858;4.392;2023-07-29T13:18:16;26.70;99.90
43679;DHT22;29279;50.858;4.392;2023-07-29T13:20:42;26.20;99.90
43679;DHT22;29279;50.858;4.392;2023-07-29T13:23:07;25.50;99.90
43679;DHT22;29279;50.858;4.392;2023-07-29T13:25:33;25.10;99.90
43679;DHT22;29279;50.858;4.392;2023-07-29T13:27:59;24.80;99.90
43679;DHT22;29279;50.858;4.392;2023-07-29T13:30:24;24.30;99.90
43679;DHT22;29279;50.858;4.392;2023-07-29T13:32:50;24.10;99.90
43679;DHT22;29279;50.858;4.392;2023-07-29T13:35:15;24.20;99.90
43679;DHT22;29279;50.858;4.392;2023-07-29T13:37:41;25.00;99.90
43679;DHT22;29279;50.858;4.392;2023-07-29T13:40:07;26.60;99.90
43679;DHT22;29279;50.858;4.392;2023-07-29T13:42:33;27.40;99.90
43679;DHT22;29279;50.858;4.392;2023-07-29T13:44:58;28.00;99.90
43679;DHT22;29279;50.858;4.392;2023-07-29T13:47:24;28.20;99.90
43679;DHT22;29279;50.858;4.392;2023-07-29T13:49:50;27.20;99.90
43679;DHT22;29279;50.858;4.392;2023-07-29T13:52:15;26.30;99.90
43679;DHT22;29279;50.858;4.392;2023-07-29T13:54:41;26.10;99.90
43679;DHT22;29279;50.858;4.392;2023-07-29T13:57:07;26.00;99.90
43679;DHT22;29279;50.858;4.392;2023-07-29T13:59:32;25.40;99.90
43679;DHT22;29279;50.858;4.392;2023-07-29T14:01:58;24.90;99.90
43679;DHT22;29279;50.858;4.392;2023-07-29T14:04:24;24.60;99.90
43679;DHT22;29279;50.858;4.392;2023-07-29T14:06:49;24.40;99.90
43679;DHT22;29279;50.858;4.392;2023-07-29T14:09:15;24.10;99.90
43679;DHT22;29279;50.858;4.392;2023-07-29T14:11:41;24.50;99.90
43679;DHT22;29279;50.858;4.392;2023-07-29T14:14:07;25.50;99.90
43679;DHT22;29279;50.858;4.392;2023-07-29T14:16:33;26.30;99.90
43679;DHT22;29279;50.858;4.392;2023-07-29T14:18:58;27.80;99.90
43679;DHT22;29279;50.858;4.392;2023-07-29T14:21:24;27.90;99.90
43679;DHT22;29279;50.858;4.392;2023-07-29T14:23:53;28.40;99.90
43679;DHT22;29279;50.858;4.392;2023-07-29T14:26:19;28.90;99.90
43679;DHT22;29279;50.858;4.392;2023-07-29T14:28:45;29.10;99.90
43679;DHT22;29279;50.858;4.392;2023-07-29T14:31:10;29.20;99.90
43679;DHT22;29279;50.858;4.392;2023-07-29T14:33:36;28.20;99.90
43679;DHT22;29279;50.858;4.392;2023-07-29T14:36:02;27.00;99.90
43679;DHT22;29279;50.858;4.392;2023-07-29T14:38:29;26.50;99.90
43679;DHT22;29279;50.858;4.392;2023-07-29T14:40:54;26.50;99.90
43679;DHT22;29279;50.858;4.392;2023-07-29T14:43:22;26.80;99.90
43679;DHT22;29279;50.858;4.392;2023-07-29T14:45:48;26.60;99.90
43679;DHT22;29279;50.858;4.392;2023-07-29T14:48:14;26.10;99.90
43679;DHT22;29279;50.858;4.392;2023-07-29T14:50:40;26.20;99.90
43679;DHT22;29279;50.858;4.392;2023-07-29T14:53:06;26.10;99.90
43679;DHT22;29279;50.858;4.392;2023-07-29T14:55:32;25.80;99.90
43679;DHT22;29279;50.858;4.392;2023-07-29T14:57:58;25.90;99.90
43679;DHT22;29279;50.858;4.392;2023-07-29T15:00:23;25.80;99.90
43679;DHT22;29279;50.858;4.392;2023-07-29T15:02:49;25.60;99.90
43679;DHT22;29279;50.858;4.392;2023-07-29T15:05:15;25.40;99.90
43679;DHT22;29279;50.858;4.392;2023-07-29T15:07:40;25.00;99.90
43679;DHT22;29279;50.858;4.392;2023-07-29T15:10:06;25.10;99.90
43679;DHT22;29279;50.858;4.392;2023-07-29T15:12:32;25.00;99.90
43679;DHT22;29279;50.858;4.392;2023-07-29T15:14:58;24.90;99.90
43679;DHT22;29279;50.858;4.392;2023-07-29T15:17:23;24.70;99.90
43679;DHT22;29279;50.858;4.392;2023-07-29T15:19:49;24.80;99.90
43679;DHT22;29279;50.858;4.392;2023-07-29T15:22:16;24.70;99.90
43679;DHT22;29279;50.858;4.392;2023-07-29T15:24:42;24.40;99.90
43679;DHT22;29279;50.858;4.392;2023-07-29T15:27:09;24.50;99.90
43679;DHT22;29279;50.858;4.392;2023-07-29T15:29:35;24.70;99.90
43679;DHT22;29279;50.858;4.392;2023-07-29T15:32:01;24.90;99.90
43679;DHT22;29279;50.858;4.392;2023-07-29T15:34:27;24.90;99.90
43679;DHT22;29279;50.858;4.392;2023-07-29T15:36:59;24.90;99.90
43679;DHT22;29279;50.858;4.392;2023-07-29T15:39:25;24.80;99.90